sensor_id;sensor_type;location;lat;lon;timestamp;pressure;altitude;pressure_sealevel;temperature;humidity
49999;BME280;68071;45.062;7.356;2023-09-30T00:02:43;95782.53;;;15.34;100.00
49999;BME280;68071;45.062;7.356;2023-09-30T00:05:48;95785.44;;;15.51;100.00
49999;BME280;68071;45.062;7.356;2023-09-30T00:08:52;95790.09;;;15.34;100.00
49999;BME280;68071;45.062;7.356;2023-09-30T00:11:57;95793.00;;;15.26;100.00
49999;BME280;68071;45.062;7.356;2023-09-30T00:15:02;95787.66;;;15.36;100.00
49999;BME280;68071;45.062;7.356;2023-09-30T00:18:06;95799.94;;;15.15;100.00
49999;BME280;68071;45.062;7.356;2023-09-30T00:21:10;95802.91;;;15.04;100.00
49999;BME280;68071;45.062;7.356;2023-09-30T00:24:15;95800.88;;;14.80;100.00
49999;BME280;68071;45.062;7.356;2023-09-30T00:27:18;95798.06;;;15.08;100.00
49999;BME280;68071;45.062;7.356;2023-09-30T00:30:23;95803.91;;;14.90;100.00
49999;BME280;68071;45.062;7.356;2023-09-30T00:33:29;95813.06;;;15.14;100.00
49999;BME280;68071;45.062;7.356;2023-09-30T00:36:33;95816.47;;;15.73;100.00
49999;BME280;68071;45.062;7.356;2023-09-30T00:39:37;95810.59;;;15.91;100.00
49999;BME280;68071;45.062;7.356;2023-09-30T00:42:41;95807.13;;;15.39;100.00
49999;BME280;68071;45.062;7.356;2023-09-30T00:45:48;95810.53;;;15.71;100.00
49999;BME280;68071;45.062;7.356;2023-09-30T00:48:53;95801.19;;;16.05;100.00
49999;BME280;68071;45.062;7.356;2023-09-30T00:51:57;95793.53;;;15.89;100.00
49999;BME280;68071;45.062;7.356;2023-09-30T00:55:03;95796.41;;;15.82;100.00
49999;BME280;68071;45.062;7.356;2023-09-30T00:58:07;95791.97;;;15.17;100.00
49999;BME280;68071;45.062;7.356;2023-09-30T01:01:11;95796.13;;;15.05;100.00
49999;BME280;68071;45.062;7.356;2023-09-30T01:04:15;95788.91;;;14.84;100.00
49999;BME280;68071;45.062;7.356;2023-09-30T01:07:20;95788.00;;;15.14;100.00
49999;BME280;68071;45.062;7.356;2023-09-30T01:10:25;95803.09;;;15.64;100.00
49999;BME280;68071;45.062;7.356;2023-09-30T01:13:33;95782.78;;;15.20;100.00
49999;BME280;68071;45.062;7.356;2023-09-30T01:16:40;95785.88;;;15.49;100.00
49999;BME280;68071;45.062;7.356;2023-09-30T01:19:44;95773.59;;;15.67;100.00
49999;BME280;68071;45.062;7.356;2023-09-30T01:22:49;95773.06;;;15.52;100.00
49999;BME280;68071;45.062;7.356;2023-09-30T01:25:53;95770.78;;;14.99;100.00
49999;BME280;68071;45.062;7.356;2023-09-30T01:28:57;95770.13;;;14.88;100.00
49999;BME280;68071;45.062;7.356;2023-09-30T01:32:01;95764.50;;;14.64;100.00
49999;BME280;68071;45.062;7.356;2023-09-30T01:35:06;95764.88;;;15.65;100.00
49999;BME280;68071;45.062;7.356;2023-09-30T01:38:10;95754.94;;;15.64;100.00
49999;BME280;68071;45.062;7.356;2023-09-30T01:41:14;95752.56;;;16.06;100.00
49999;BME280;68071;45.062;7.356;2023-09-30T01:44:20;95749.19;;;15.75;100.00
49999;BME280;68071;45.062;7.356;2023-09-30T01:47:24;95749.28;;;15.23;100.00
49999;BME280;68071;45.062;7.356;2023-09-30T01:50:29;95739.41;;;14.95;100.00
49999;BME280;68071;45.062;7.356;2023-09-30T01:53:34;95743.28;;;14.77;100.00
49999;BME280;68071;45.062;7.356;2023-09-30T01:56:38;95744.56;;;14.69;100.00
49999;BME280;68071;45.062;7.356;2023-09-30T01:59:43;95748.56;;;14.68;100.00
49999;BME280;68071;45.062;7.356;2023-09-30T02:02:47;95750.78;;;14.80;100.00
49999;BME280;68071;45.062;7.356;2023-09-30T02:05:51;95752.72;;;15.07;100.00
49999;BME280;68071;45.062;7.356;2023-09-30T02:08:55;95748.00;;;15.04;100.00
49999;BME280;68071;45.062;7.356;2023-09-30T02:12:00;95746.66;;;14.89;100.00
49999;BME280;68071;45.062;7.356;2023-09-30T02:15:05;95751.03;;;15.13;100.00
49999;BME280;68071;45.062;7.356;2023-09-30T02:18:11;95745.41;;;14.93;100.00
49999;BME280;68071;45.062;7.356;2023-09-30T02:21:15;95750.19;;;14.93;100.00
49999;BME280;68071;45.062;7.356;2023-09-30T02:24:20;95747.41;;;14.65;100.00
49999;BME280;68071;45.062;7.356;2023-09-30T02:27:25;95757.03;;;14.57;100.00
49999;BME280;68071;45.062;7.356;2023-09-30T02:30:29;95755.81;;;14.62;100.00
49999;BME280;68071;45.062;7.356;2023-09-30T02:33:35;95749.13;;;14.56;100.00
49999;BME280;68071;45.062;7.356;2023-09-30T02:36:40;95753.47;;;14.57;100.00
49999;BME280;68071;45.062;7.356;2023-09-30T02:39:45;95744.38;;;14.56;100.00
49999;BME280;68071;45.062;7.356;2023-09-30T02:42:50;95750.59;;;14.64;100.00
49999;BME280;68071;45.062;7.356;2023-09-30T02:45:55;95751.66;;;14.46;100.00
49999;BME280;68071;45.062;7.356;2023-09-30T02:49:01;95743.78;;;14.41;100.00
49999;BME280;68071;45.062;7.356;2023-09-30T02:52:05;95748.50;;;14.44;100.00
49999;BME280;68071;45.062;7.356;2023-09-30T02:55:10;95747.16;;;14.56;100.00
49999;BME280;68071;45.062;7.356;2023-09-30T02:58:14;95747.69;;;14.75;100.00
49999;BME280;68071;45.062;7.356;2023-09-30T03:01:18;95742.13;;;14.75;100.00
49999;BME280;68071;45.062;7.356;2023-09-30T03:04:24;95744.03;;;14.78;100.00
49999;BME280;68071;45.062;7.356;2023-09-30T03:07:32;95737.16;;;14.59;100.00
49999;BME280;68071;45.062;7.356;2023-09-30T03:10:37;95741.69;;;14.76;100.00
49999;BME280;68071;45.062;7.356;2023-09-30T03:13:43;95737.44;;;14.68;100.00
49999;BME280;68071;45.062;7.356;2023-09-30T03:16:48;95744.91;;;14.44;100.00
49999;BME280;68071;45.062;7.356;2023-09-30T03:19:52;95741.31;;;14.74;100.00
49999;BME280;68071;45.062;7.356;2023-09-30T03:22:57;95743.38;;;14.70;100.00
49999;BME280;68071;45.062;7.356;2023-09-30T03:26:03;95739.38;;;14.71;100.00
49999;BME280;68071;45.062;7.356;2023-09-30T03:29:07;95743.13;;;14.57;100.00
49999;BME280;68071;45.062;7.356;2023-09-30T03:32:12;95733.97;;;14.88;100.00
49999;BME280;68071;45.062;7.356;2023-09-30T03:35:16;95736.69;;;14.64;100.00
49999;BME280;68071;45.062;7.356;2023-09-30T03:38:21;95739.34;;;14.44;100.00
49999;BME280;68071;45.062;7.356;2023-09-30T03:41:26;95741.59;;;14.84;100.00
49999;BME280;68071;45.062;7.356;2023-09-30T03:44:30;95741.31;;;14.74;100.00
49999;BME280;68071;45.062;7.356;2023-09-30T03:47:37;95744.63;;;14.65;100.00
49999;BME280;68071;45.062;7.356;2023-09-30T03:50:42;95749.25;;;14.76;100.00
49999;BME280;68071;45.062;7.356;2023-09-30T03:53:47;95742.59;;;14.66;100.00
49999;BME280;68071;45.062;7.356;2023-09-30T03:56:51;95738.31;;;14.61;100.00
49999;BME280;68071;45.062;7.356;2023-09-30T03:59:55;95745.19;;;14.53;100.00
49999;BME280;68071;45.062;7.356;2023-09-30T04:02:59;95741.91;;;14.31;100.00
49999;BME280;68071;45.062;7.356;2023-09-30T04:06:03;95734.69;;;14.37;100.00
49999;BME280;68071;45.062;7.356;2023-09-30T04:09:07;95730.28;;;14.40;100.00
49999;BME280;68071;45.062;7.356;2023-09-30T04:12:14;95727.97;;;14.34;100.00
49999;BME280;68071;45.062;7.356;2023-09-30T04:15:19;95724.59;;;14.19;100.00
49999;BME280;68071;45.062;7.356;2023-09-30T04:18:23;95724.84;;;14.29;100.00
49999;BME280;68071;45.062;7.356;2023-09-30T04:21:29;95723.78;;;14.22;100.00
49999;BME280;68071;45.062;7.356;2023-09-30T04:24:37;95731.28;;;14.26;100.00
49999;BME280;68071;45.062;7.356;2023-09-30T04:27:42;95720.84;;;14.33;100.00
49999;BME280;68071;45.062;7.356;2023-09-30T04:30:47;95714.00;;;14.38;100.00
49999;BME280;68071;45.062;7.356;2023-09-30T04:33:52;95713.03;;;14.25;100.00
49999;BME280;68071;45.062;7.356;2023-09-30T04:36:56;95710.56;;;14.30;100.00
49999;BME280;68071;45.062;7.356;2023-09-30T04:40:00;95721.97;;;14.36;100.00
49999;BME280;68071;45.062;7.356;2023-09-30T04:43:04;95722.13;;;14.25;100.00
49999;BME280;68071;45.062;7.356;2023-09-30T04:46:09;95724.16;;;14.21;100.00
49999;BME280;68071;45.062;7.356;2023-09-30T04:49:16;95722.44;;;14.31;100.00
49999;BME280;68071;45.062;7.356;2023-09-30T04:52:21;95719.22;;;14.36;100.00
49999;BME280;68071;45.062;7.356;2023-09-30T04:55:25;95715.81;;;14.52;100.00
49999;BME280;68071;45.062;7.356;2023-09-30T04:58:30;95715.44;;;14.50;100.00
49999;BME280;68071;45.062;7.356;2023-09-30T05:01:34;95713.81;;;14.52;100.00
49999;BME280;68071;45.062;7.356;2023-09-30T05:04:38;95711.38;;;14.55;100.00
49999;BME280;68071;45.062;7.356;2023-09-30T05:07:41;95710.66;;;14.50;100.00
49999;BME280;68071;45.062;7.356;2023-09-30T05:10:46;95712.59;;;14.53;100.00
49999;BME280;68071;45.062;7.356;2023-09-30T05:13:50;95715.28;;;14.33;100.00
49999;BME280;68071;45.062;7.356;2023-09-30T05:16:54;95713.19;;;14.10;100.00
49999;BME280;68071;45.062;7.356;2023-09-30T05:20:00;95712.59;;;14.26;100.00
49999;BME280;68071;45.062;7.356;2023-09-30T05:23:04;95710.56;;;14.30;100.00
49999;BME280;68071;45.062;7.356;2023-09-30T05:26:10;95713.19;;;14.41;100.00
49999;BME280;68071;45.062;7.356;2023-09-30T05:29:15;95710.63;;;14.27;100.00
49999;BME280;68071;45.062;7.356;2023-09-30T05:32:21;95718.44;;;14.35;100.00
49999;BME280;68071;45.062;7.356;2023-09-30T05:35:26;95726.31;;;14.68;100.00
49999;BME280;68071;45.062;7.356;2023-09-30T05:38:30;95725.88;;;14.42;100.00
49999;BME280;68071;45.062;7.356;2023-09-30T05:41:38;95723.78;;;14.22;100.00
49999;BME280;68071;45.062;7.356;2023-09-30T05:44:42;95718.78;;;14.37;100.00
49999;BME280;68071;45.062;7.356;2023-09-30T05:47:47;95720.78;;;14.37;100.00
49999;BME280;68071;45.062;7.356;2023-09-30T05:50:51;95725.81;;;14.46;100.00
49999;BME280;68071;45.062;7.356;2023-09-30T05:53:56;95722.22;;;14.49;100.00
49999;BME280;68071;45.062;7.356;2023-09-30T05:57:00;95734.84;;;14.53;100.00
49999;BME280;68071;45.062;7.356;2023-09-30T06:00:04;95740.78;;;14.56;100.00
49999;BME280;68071;45.062;7.356;2023-09-30T06:03:18;95738.06;;;14.52;100.00
49999;BME280;68071;45.062;7.356;2023-09-30T06:06:22;95740.72;;;14.87;100.00
49999;BME280;68071;45.062;7.356;2023-09-30T06:09:27;95733.25;;;14.84;100.00
49999;BME280;68071;45.062;7.356;2023-09-30T06:12:34;95736.34;;;14.89;100.00
49999;BME280;68071;45.062;7.356;2023-09-30T06:15:39;95732.84;;;15.09;100.00
49999;BME280;68071;45.062;7.356;2023-09-30T06:18:44;95741.97;;;15.09;100.00
49999;BME280;68071;45.062;7.356;2023-09-30T06:21:49;95741.41;;;15.18;100.00
49999;BME280;68071;45.062;7.356;2023-09-30T06:24:54;95740.75;;;15.34;100.00
49999;BME280;68071;45.062;7.356;2023-09-30T06:27:57;95741.69;;;15.48;100.00
49999;BME280;68071;45.062;7.356;2023-09-30T06:31:01;95736.19;;;15.44;100.00
49999;BME280;68071;45.062;7.356;2023-09-30T06:34:06;95743.72;;;15.47;100.00
49999;BME280;68071;45.062;7.356;2023-09-30T06:37:12;95749.59;;;15.73;100.00
49999;BME280;68071;45.062;7.356;2023-09-30T06:40:15;95747.03;;;15.82;100.00
49999;BME280;68071;45.062;7.356;2023-09-30T06:43:19;95754.63;;;16.02;100.00
49999;BME280;68071;45.062;7.356;2023-09-30T06:46:24;95759.56;;;16.14;100.00
49999;BME280;68071;45.062;7.356;2023-09-30T06:49:28;95761.78;;;16.23;100.00
49999;BME280;68071;45.062;7.356;2023-09-30T06:52:31;95752.94;;;16.45;100.00
49999;BME280;68071;45.062;7.356;2023-09-30T06:55:38;95763.25;;;16.48;100.00
49999;BME280;68071;45.062;7.356;2023-09-30T06:58:42;95768.09;;;16.64;100.00
49999;BME280;68071;45.062;7.356;2023-09-30T07:01:46;95771.06;;;16.90;100.00
49999;BME280;68071;45.062;7.356;2023-09-30T07:04:51;95779.06;;;17.08;100.00
49999;BME280;68071;45.062;7.356;2023-09-30T07:07:55;95785.34;;;17.12;100.00
49999;BME280;68071;45.062;7.356;2023-09-30T07:10:59;95789.78;;;17.26;100.00
49999;BME280;68071;45.062;7.356;2023-09-30T07:14:04;95788.56;;;17.27;100.00
49999;BME280;68071;45.062;7.356;2023-09-30T07:17:08;95790.94;;;17.45;100.00
49999;BME280;68071;45.062;7.356;2023-09-30T07:20:12;95793.88;;;17.54;100.00
49999;BME280;68071;45.062;7.356;2023-09-30T07:23:16;95802.34;;;17.67;100.00
49999;BME280;68071;45.062;7.356;2023-09-30T07:26:24;95810.00;;;17.80;100.00
49999;BME280;68071;45.062;7.356;2023-09-30T07:29:29;95809.81;;;17.87;100.00
49999;BME280;68071;45.062;7.356;2023-09-30T07:32:33;95810.16;;;17.89;100.00
49999;BME280;68071;45.062;7.356;2023-09-30T07:35:37;95814.63;;;18.03;100.00
49999;BME280;68071;45.062;7.356;2023-09-30T07:38:42;95816.03;;;18.24;100.00
49999;BME280;68071;45.062;7.356;2023-09-30T07:41:46;95816.84;;;18.38;100.00
49999;BME280;68071;45.062;7.356;2023-09-30T07:44:50;95816.31;;;18.43;100.00
49999;BME280;68071;45.062;7.356;2023-09-30T07:47:55;95826.84;;;18.52;100.00
49999;BME280;68071;45.062;7.356;2023-09-30T07:51:01;95826.22;;;18.73;100.00
49999;BME280;68071;45.062;7.356;2023-09-30T07:54:06;95825.69;;;18.79;100.00
49999;BME280;68071;45.062;7.356;2023-09-30T07:57:10;95825.63;;;19.08;100.00
49999;BME280;68071;45.062;7.356;2023-09-30T08:00:14;95824.16;;;19.29;100.00
49999;BME280;68071;45.062;7.356;2023-09-30T08:03:19;95827.63;;;19.20;100.00
49999;BME280;68071;45.062;7.356;2023-09-30T08:06:23;95821.13;;;19.24;100.00
49999;BME280;68071;45.062;7.356;2023-09-30T08:09:27;95821.91;;;19.24;100.00
49999;BME280;68071;45.062;7.356;2023-09-30T08:12:31;95828.09;;;19.19;100.00
49999;BME280;68071;45.062;7.356;2023-09-30T08:15:35;95828.66;;;19.14;100.00
49999;BME280;68071;45.062;7.356;2023-09-30T08:18:40;95818.00;;;19.22;100.00
49999;BME280;68071;45.062;7.356;2023-09-30T08:21:43;95833.66;;;18.93;100.00
49999;BME280;68071;45.062;7.356;2023-09-30T08:24:48;95841.66;;;18.65;100.00
49999;BME280;68071;45.062;7.356;2023-09-30T08:27:52;95844.00;;;18.54;100.00
49999;BME280;68071;45.062;7.356;2023-09-30T08:31:04;95846.91;;;18.63;100.00
49999;BME280;68071;45.062;7.356;2023-09-30T08:34:09;95846.59;;;18.61;100.00
49999;BME280;68071;45.062;7.356;2023-09-30T08:37:13;95849.63;;;18.67;100.00
49999;BME280;68071;45.062;7.356;2023-09-30T08:40:21;95842.59;;;18.88;100.00
49999;BME280;68071;45.062;7.356;2023-09-30T08:43:25;95856.19;;;19.02;100.00
49999;BME280;68071;45.062;7.356;2023-09-30T08:46:35;95854.75;;;18.98;100.00
49999;BME280;68071;45.062;7.356;2023-09-30T08:49:41;95850.03;;;19.08;100.00
49999;BME280;68071;45.062;7.356;2023-09-30T08:52:48;95843.00;;;19.29;100.00
49999;BME280;68071;45.062;7.356;2023-09-30T08:55:54;95849.91;;;19.63;100.00
49999;BME280;68071;45.062;7.356;2023-09-30T08:59:00;95847.16;;;19.98;100.00
49999;BME280;68071;45.062;7.356;2023-09-30T09:02:07;95846.97;;;19.92;100.00
49999;BME280;68071;45.062;7.356;2023-09-30T09:05:11;95851.44;;;19.77;100.00
49999;BME280;68071;45.062;7.356;2023-09-30T09:08:16;95851.91;;;19.88;100.00
49999;BME280;68071;45.062;7.356;2023-09-30T09:11:20;95856.81;;;20.32;100.00
49999;BME280;68071;45.062;7.356;2023-09-30T09:14:39;95853.28;;;20.41;100.00
49999;BME280;68071;45.062;7.356;2023-09-30T09:17:44;95852.50;;;20.63;99.00
49999;BME280;68071;45.062;7.356;2023-09-30T09:20:48;95856.47;;;20.30;99.07
49999;BME280;68071;45.062;7.356;2023-09-30T09:23:53;95866.94;;;19.94;100.00
49999;BME280;68071;45.062;7.356;2023-09-30T09:27:07;95857.28;;;19.83;100.00
49999;BME280;68071;45.062;7.356;2023-09-30T09:30:16;95860.09;;;19.83;100.00
49999;BME280;68071;45.062;7.356;2023-09-30T09:33:20;95863.91;;;19.89;100.00
49999;BME280;68071;45.062;7.356;2023-09-30T09:36:41;95863.31;;;20.29;100.00
49999;BME280;68071;45.062;7.356;2023-09-30T09:39:55;95862.03;;;20.43;100.00
49999;BME280;68071;45.062;7.356;2023-09-30T09:43:02;95863.47;;;20.48;98.40
49999;BME280;68071;45.062;7.356;2023-09-30T09:46:08;95860.88;;;20.18;100.00
49999;BME280;68071;45.062;7.356;2023-09-30T09:49:18;95866.16;;;20.51;99.75
49999;BME280;68071;45.062;7.356;2023-09-30T09:52:23;95867.59;;;20.56;97.52
49999;BME280;68071;45.062;7.356;2023-09-30T09:55:28;95854.31;;;20.12;100.00
49999;BME280;68071;45.062;7.356;2023-09-30T09:58:33;95859.91;;;20.12;100.00
49999;BME280;68071;45.062;7.356;2023-09-30T10:01:40;95852.63;;;20.37;99.28
49999;BME280;68071;45.062;7.356;2023-09-30T10:04:45;95854.13;;;20.73;97.11
49999;BME280;68071;45.062;7.356;2023-09-30T10:08:13;95857.97;;;20.22;100.00
49999;BME280;68071;45.062;7.356;2023-09-30T10:11:19;95843.47;;;20.90;98.92
49999;BME280;68071;45.062;7.356;2023-09-30T10:14:33;95852.94;;;21.06;95.73
49999;BME280;68071;45.062;7.356;2023-09-30T10:18:09;95856.50;;;21.38;93.02
49999;BME280;68071;45.062;7.356;2023-09-30T10:21:14;95838.22;;;21.01;92.94
49999;BME280;68071;45.062;7.356;2023-09-30T10:27:30;95832.06;;;21.16;95.73
49999;BME280;68071;45.062;7.356;2023-09-30T10:34:21;95830.38;;;21.28;94.21
49999;BME280;68071;45.062;7.356;2023-09-30T10:37:25;95826.94;;;20.92;97.73
49999;BME280;68071;45.062;7.356;2023-09-30T10:40:30;95826.25;;;21.10;96.83
49999;BME280;68071;45.062;7.356;2023-09-30T10:43:40;95813.06;;;20.89;96.63
49999;BME280;68071;45.062;7.356;2023-09-30T10:46:45;95822.16;;;21.43;88.43
49999;BME280;68071;45.062;7.356;2023-09-30T10:49:49;95817.81;;;21.51;86.15
49999;BME280;68071;45.062;7.356;2023-09-30T10:52:54;95821.03;;;22.00;84.70
49999;BME280;68071;45.062;7.356;2023-09-30T10:55:59;95814.94;;;22.20;78.34
49999;BME280;68071;45.062;7.356;2023-09-30T10:59:03;95817.88;;;21.70;82.11
49999;BME280;68071;45.062;7.356;2023-09-30T11:02:19;95815.50;;;21.68;83.08
49999;BME280;68071;45.062;7.356;2023-09-30T11:05:23;95817.66;;;21.55;90.68
49999;BME280;68071;45.062;7.356;2023-09-30T11:08:29;95819.06;;;21.50;84.61
49999;BME280;68071;45.062;7.356;2023-09-30T11:14:40;95817.25;;;21.84;84.80
49999;BME280;68071;45.062;7.356;2023-09-30T11:17:45;95810.09;;;22.20;85.45
49999;BME280;68071;45.062;7.356;2023-09-30T11:20:49;95811.97;;;22.51;80.11
49999;BME280;68071;45.062;7.356;2023-09-30T11:23:53;95814.16;;;22.57;81.18
49999;BME280;68071;45.062;7.356;2023-09-30T11:26:57;95811.97;;;22.61;81.49
49999;BME280;68071;45.062;7.356;2023-09-30T11:30:03;95812.53;;;22.74;83.65
49999;BME280;68071;45.062;7.356;2023-09-30T11:33:07;95795.00;;;22.79;75.72
49999;BME280;68071;45.062;7.356;2023-09-30T11:36:13;95794.88;;;22.74;79.80
49999;BME280;68071;45.062;7.356;2023-09-30T11:39:22;95786.59;;;22.51;83.06
49999;BME280;68071;45.062;7.356;2023-09-30T11:42:27;95790.03;;;22.65;80.74
49999;BME280;68071;45.062;7.356;2023-09-30T11:45:31;95784.13;;;22.26;91.13
49999;BME280;68071;45.062;7.356;2023-09-30T11:48:38;95775.66;;;22.63;79.92
49999;BME280;68071;45.062;7.356;2023-09-30T11:51:43;95786.50;;;22.98;81.14
49999;BME280;68071;45.062;7.356;2023-09-30T11:54:51;95783.81;;;23.04;79.66
49999;BME280;68071;45.062;7.356;2023-09-30T11:57:55;95781.34;;;22.87;81.70
49999;BME280;68071;45.062;7.356;2023-09-30T12:00:59;95780.16;;;22.60;83.39
49999;BME280;68071;45.062;7.356;2023-09-30T12:04:04;95779.91;;;23.01;80.21
49999;BME280;68071;45.062;7.356;2023-09-30T12:07:08;95782.66;;;23.10;81.06
49999;BME280;68071;45.062;7.356;2023-09-30T12:10:12;95788.66;;;23.03;81.64
49999;BME280;68071;45.062;7.356;2023-09-30T12:13:18;95777.22;;;23.07;82.42
49999;BME280;68071;45.062;7.356;2023-09-30T12:16:22;95774.88;;;22.53;84.81
49999;BME280;68071;45.062;7.356;2023-09-30T12:19:27;95775.84;;;22.13;86.89
49999;BME280;68071;45.062;7.356;2023-09-30T12:22:31;95769.84;;;22.66;89.20
49999;BME280;68071;45.062;7.356;2023-09-30T12:25:36;95762.50;;;22.60;85.57
49999;BME280;68071;45.062;7.356;2023-09-30T12:28:41;95768.31;;;22.99;84.13
49999;BME280;68071;45.062;7.356;2023-09-30T12:31:45;95767.13;;;22.81;80.24
49999;BME280;68071;45.062;7.356;2023-09-30T12:34:50;95769.81;;;23.19;78.71
49999;BME280;68071;45.062;7.356;2023-09-30T12:37:54;95769.81;;;23.09;82.72
49999;BME280;68071;45.062;7.356;2023-09-30T12:40:58;95754.13;;;23.18;79.01
49999;BME280;68071;45.062;7.356;2023-09-30T12:44:04;95755.84;;;22.81;93.53
49999;BME280;68071;45.062;7.356;2023-09-30T12:47:09;95757.81;;;23.00;82.78
49999;BME280;68071;45.062;7.356;2023-09-30T12:50:13;95746.28;;;22.88;85.59
49999;BME280;68071;45.062;7.356;2023-09-30T12:53:17;95748.53;;;23.08;82.62
49999;BME280;68071;45.062;7.356;2023-09-30T12:56:21;95746.69;;;23.63;83.94
49999;BME280;68071;45.062;7.356;2023-09-30T12:59:25;95742.00;;;23.60;80.10
49999;BME280;68071;45.062;7.356;2023-09-30T13:02:30;95751.66;;;23.68;81.17
49999;BME280;68071;45.062;7.356;2023-09-30T13:05:34;95745.34;;;22.91;89.63
49999;BME280;68071;45.062;7.356;2023-09-30T13:08:38;95732.41;;;23.09;82.32
49999;BME280;68071;45.062;7.356;2023-09-30T13:11:42;95727.00;;;23.20;82.86
49999;BME280;68071;45.062;7.356;2023-09-30T13:14:47;95729.94;;;23.02;87.49
49999;BME280;68071;45.062;7.356;2023-09-30T13:17:51;95722.00;;;23.49;80.00
49999;BME280;68071;45.062;7.356;2023-09-30T13:20:55;95718.53;;;23.54;81.94
49999;BME280;68071;45.062;7.356;2023-09-30T13:24:00;95720.63;;;23.44;81.97
49999;BME280;68071;45.062;7.356;2023-09-30T13:27:05;95722.47;;;23.71;85.33
49999;BME280;68071;45.062;7.356;2023-09-30T13:30:10;95720.97;;;23.85;80.43
49999;BME280;68071;45.062;7.356;2023-09-30T13:33:14;95717.63;;;23.72;80.45
49999;BME280;68071;45.062;7.356;2023-09-30T13:36:18;95711.03;;;23.90;77.43
49999;BME280;68071;45.062;7.356;2023-09-30T13:39:22;95707.31;;;24.08;75.13
49999;BME280;68071;45.062;7.356;2023-09-30T13:42:28;95710.34;;;23.80;83.96
49999;BME280;68071;45.062;7.356;2023-09-30T13:45:32;95700.16;;;23.34;85.34
49999;BME280;68071;45.062;7.356;2023-09-30T13:48:38;95699.16;;;23.22;83.71
49999;BME280;68071;45.062;7.356;2023-09-30T13:51:43;95695.91;;;23.63;80.12
49999;BME280;68071;45.062;7.356;2023-09-30T13:54:47;95695.78;;;23.97;79.17
49999;BME280;68071;45.062;7.356;2023-09-30T13:57:51;95674.59;;;24.16;77.35
49999;BME280;68071;45.062;7.356;2023-09-30T14:00:55;95680.91;;;24.41;77.85
49999;BME280;68071;45.062;7.356;2023-09-30T14:04:03;95678.31;;;24.38;78.64
49999;BME280;68071;45.062;7.356;2023-09-30T14:07:08;95678.66;;;24.15;76.33
49999;BME280;68071;45.062;7.356;2023-09-30T14:10:12;95670.63;;;23.84;81.19
49999;BME280;68071;45.062;7.356;2023-09-30T14:13:17;95672.91;;;24.40;76.29
49999;BME280;68071;45.062;7.356;2023-09-30T14:16:22;95675.25;;;24.56;75.24
49999;BME280;68071;45.062;7.356;2023-09-30T14:19:26;95677.88;;;24.45;77.48
49999;BME280;68071;45.062;7.356;2023-09-30T14:22:32;95679.25;;;24.50;73.54
49999;BME280;68071;45.062;7.356;2023-09-30T14:25:36;95680.34;;;24.52;73.45
49999;BME280;68071;45.062;7.356;2023-09-30T14:28:40;95686.06;;;24.43;72.60
49999;BME280;68071;45.062;7.356;2023-09-30T14:31:44;95678.91;;;23.87;80.54
49999;BME280;68071;45.062;7.356;2023-09-30T14:34:47;95683.44;;;24.24;75.64
49999;BME280;68071;45.062;7.356;2023-09-30T14:37:52;95674.59;;;24.46;74.68
49999;BME280;68071;45.062;7.356;2023-09-30T14:40:58;95685.50;;;24.24;78.43
49999;BME280;68071;45.062;7.356;2023-09-30T14:44:01;95687.16;;;24.75;77.85
49999;BME280;68071;45.062;7.356;2023-09-30T14:47:11;95683.22;;;24.88;73.87
49999;BME280;68071;45.062;7.356;2023-09-30T14:50:15;95678.66;;;24.60;80.89
49999;BME280;68071;45.062;7.356;2023-09-30T14:53:20;95683.19;;;25.03;71.07
49999;BME280;68071;45.062;7.356;2023-09-30T14:56:24;95677.78;;;25.20;70.98
49999;BME280;68071;45.062;7.356;2023-09-30T14:59:27;95676.22;;;25.19;71.59
49999;BME280;68071;45.062;7.356;2023-09-30T15:02:31;95671.25;;;25.14;71.41
49999;BME280;68071;45.062;7.356;2023-09-30T15:05:35;95667.81;;;24.89;73.78
49999;BME280;68071;45.062;7.356;2023-09-30T15:08:39;95672.81;;;25.15;71.98
49999;BME280;68071;45.062;7.356;2023-09-30T15:11:43;95668.31;;;25.44;70.34
49999;BME280;68071;45.062;7.356;2023-09-30T15:14:47;95663.44;;;25.44;68.89
49999;BME280;68071;45.062;7.356;2023-09-30T15:17:51;95669.22;;;25.56;69.57
49999;BME280;68071;45.062;7.356;2023-09-30T15:20:56;95674.06;;;25.49;68.91
49999;BME280;68071;45.062;7.356;2023-09-30T15:24:00;95671.31;;;25.55;71.80
49999;BME280;68071;45.062;7.356;2023-09-30T15:27:06;95670.50;;;25.34;73.69
49999;BME280;68071;45.062;7.356;2023-09-30T15:30:10;95669.78;;;25.39;74.50
49999;BME280;68071;45.062;7.356;2023-09-30T15:33:14;95665.72;;;24.39;82.98
49999;BME280;68071;45.062;7.356;2023-09-30T15:36:18;95663.22;;;22.99;96.11
49999;BME280;68071;45.062;7.356;2023-09-30T15:39:23;95664.84;;;22.90;97.25
49999;BME280;68071;45.062;7.356;2023-09-30T15:42:27;95662.25;;;22.25;100.00
49999;BME280;68071;45.062;7.356;2023-09-30T15:45:32;95664.31;;;22.25;100.00
49999;BME280;68071;45.062;7.356;2023-09-30T15:48:37;95663.56;;;21.87;100.00
49999;BME280;68071;45.062;7.356;2023-09-30T15:51:42;95668.28;;;21.43;100.00
49999;BME280;68071;45.062;7.356;2023-09-30T15:54:45;95671.69;;;21.48;100.00
49999;BME280;68071;45.062;7.356;2023-09-30T15:57:49;95675.75;;;21.46;100.00
49999;BME280;68071;45.062;7.356;2023-09-30T16:00:53;95669.03;;;20.66;100.00
49999;BME280;68071;45.062;7.356;2023-09-30T16:03:57;95666.53;;;20.68;100.00
49999;BME280;68071;45.062;7.356;2023-09-30T16:07:01;95676.31;;;20.22;100.00
49999;BME280;68071;45.062;7.356;2023-09-30T16:10:06;95676.19;;;20.04;100.00
49999;BME280;68071;45.062;7.356;2023-09-30T16:13:10;95679.28;;;19.61;100.00
49999;BME280;68071;45.062;7.356;2023-09-30T16:16:14;95676.50;;;19.26;100.00
49999;BME280;68071;45.062;7.356;2023-09-30T16:19:18;95688.41;;;19.53;100.00
49999;BME280;68071;45.062;7.356;2023-09-30T16:22:22;95677.66;;;19.29;100.00